Time;durP1;ratioP1;P1;durP2;ratioP2;P2;SDS_P1;SDS_P2;PMS_P1;PMS_P2;Temp;Humidity;BMP_temperature;BMP_pressure;BME280_temperature;BME280_humidity;BME280_pressure;Samples;Min_cycle;Max_cycle;Signal;HPM_P1;HPM_P2
2022/09/29 00:02:11;;;;;;;5.40;4.03;;;9.40;99.90;;;;;;5111698;28;20969;-55
2022/09/29 00:04:39;;;;;;;8.10;3.90;;;9.40;99.90;;;;;;5111773;28;20941;-55
2022/09/29 00:07:07;;;;;;;4.07;3.67;;;9.40;99.90;;;;;;5109813;28;20442;-55
2022/09/29 00:09:34;;;;;;;4.20;3.80;;;9.30;99.90;;;;;;5111805;28;20531;-55
2022/09/29 00:12:02;;;;;;;12.67;4.30;;;9.50;99.90;;;;;;5111901;28;20478;-55
2022/09/29 00:14:29;;;;;;;6.70;4.27;;;9.60;99.90;;;;;;5109671;28;20814;-55
2022/09/29 00:16:56;;;;;;;5.83;4.40;;;9.60;99.90;;;;;;5112163;28;20917;-55
2022/09/29 00:19:24;;;;;;;4.47;4.07;;;9.70;99.90;;;;;;5111477;28;21003;-55
2022/09/29 00:21:51;;;;;;;4.97;4.20;;;9.70;99.90;;;;;;5109184;28;20566;-55
2022/09/29 00:24:20;;;;;;;6.07;5.43;;;9.60;99.90;;;;;;5111863;28;20450;-55
2022/09/29 00:26:47;;;;;;;4.37;3.97;;;9.70;99.90;;;;;;5111430;28;20439;-55
2022/09/29 00:29:14;;;;;;;4.10;3.80;;;9.70;99.90;;;;;;5109593;28;20446;-55
2022/09/29 00:31:41;;;;;;;4.50;3.83;;;9.60;99.90;;;;;;5112146;28;20569;-55
2022/09/29 00:34:08;;;;;;;4.13;3.00;;;9.70;99.90;;;;;;5111650;28;20462;-56
2022/09/29 00:36:36;;;;;;;3.63;3.33;;;9.60;99.90;;;;;;5109542;28;20525;-55
2022/09/29 00:39:04;;;;;;;6.13;4.70;;;9.60;99.90;;;;;;5111245;28;20847;-55
2022/09/29 00:41:34;;;;;;;6.43;3.90;;;9.60;99.90;;;;;;5110725;28;20862;-55
2022/09/29 00:44:04;;;;;;;5.40;3.60;;;9.60;99.90;;;;;;5108826;28;20443;-55
2022/09/29 00:46:39;;;;;;;4.80;3.83;;;9.60;99.90;;;;;;5111671;28;20443;-55
2022/09/29 00:49:13;;;;;;;4.87;4.17;;;9.50;99.90;;;;;;5111005;28;20488;-55
2022/09/29 00:51:43;;;;;;;5.20;4.13;;;9.50;99.90;;;;;;5109551;28;20469;-56
2022/09/29 00:54:10;;;;;;;4.63;4.20;;;9.50;99.90;;;;;;5111088;28;21019;-55
2022/09/29 00:56:41;;;;;;;6.13;3.97;;;9.60;99.90;;;;;;5111394;28;20529;-55
2022/09/29 00:59:13;;;;;;;5.60;5.03;;;9.60;99.90;;;;;;5110600;28;20468;-55
2022/09/29 01:01:40;;;;;;;4.23;3.83;;;9.70;99.90;;;;;;5115734;28;20470;-55
2022/09/29 01:04:11;;;;;;;5.10;3.90;;;9.70;99.90;;;;;;5115408;28;20501;-55
2022/09/29 01:06:41;;;;;;;4.07;3.67;;;9.60;99.90;;;;;;5113428;28;20426;-55
2022/09/29 01:09:13;;;;;;;4.97;3.93;;;9.50;99.90;;;;;;5115002;28;21013;-55
2022/09/29 01:11:42;;;;;;;4.50;4.10;;;9.50;99.90;;;;;;5114980;28;20455;-55
2022/09/29 01:14:10;;;;;;;5.23;4.47;;;9.60;99.90;;;;;;5113197;28;20475;-55
2022/09/29 01:16:40;;;;;;;9.53;4.10;;;9.50;99.90;;;;;;5114250;28;20529;-55
2022/09/29 01:19:11;;;;;;;5.33;4.27;;;9.60;99.90;;;;;;5113282;28;20960;-55
2022/09/29 01:21:54;;;;;;;6.63;4.07;;;9.60;99.90;;;;;;5112500;28;20470;-55
2022/09/29 01:24:55;;;;;;;5.87;3.87;;;9.60;99.90;;;;;;5114924;27;20484;-55
2022/09/29 01:27:43;;;;;;;5.57;4.13;;;9.50;99.90;;;;;;5112998;28;20890;-55
2022/09/29 01:30:18;;;;;;;6.13;4.50;;;9.60;99.90;;;;;;5114923;28;20457;-55
2022/09/29 01:33:20;;;;;;;4.13;3.80;;;9.70;99.90;;;;;;5114125;28;20477;-55
2022/09/29 01:35:57;;;;;;;11.27;4.37;;;9.60;99.90;;;;;;5097857;28;20454;-55
2022/09/29 01:38:46;;;;;;;6.37;3.87;;;9.60;99.90;;;;;;5113786;28;20791;-56
2022/09/29 01:41:21;;;;;;;5.47;4.27;;;9.60;99.90;;;;;;5113897;28;20800;-55
2022/09/29 01:43:53;;;;;;;5.07;3.90;;;9.60;99.90;;;;;;5112936;28;20426;-56
2022/09/29 01:46:24;;;;;;;5.50;4.20;;;9.70;99.90;;;;;;5114782;28;20538;-55
2022/09/29 01:48:56;;;;;;;4.23;3.83;;;9.70;99.90;;;;;;5112634;28;20450;-55
2022/09/29 01:51:29;;;;;;;5.23;4.03;;;9.70;99.90;;;;;;5112325;28;20469;-55
2022/09/29 01:54:00;;;;;;;4.87;3.67;;;9.80;99.90;;;;;;5114075;28;20438;-55
2022/09/29 01:56:38;;;;;;;5.67;3.80;;;9.80;99.90;;;;;;5113895;28;20487;-55
2022/09/29 01:59:10;;;;;;;4.60;3.70;;;9.90;99.90;;;;;;5112035;28;20463;-55
2022/09/29 02:01:41;;;;;;;4.30;3.90;;;9.90;99.90;;;;;;5114235;28;20482;-55
2022/09/29 02:04:15;;;;;;;5.43;3.73;;;9.70;99.90;;;;;;5113978;28;20432;-55
2022/09/29 02:06:49;;;;;;;4.07;3.67;;;9.70;99.90;;;;;;5114320;28;20829;-55
2022/09/29 02:09:22;;;;;;;4.53;4.00;;;9.90;99.90;;;;;;5114012;28;20430;-55
2022/09/29 02:11:52;;;;;;;3.97;3.57;;;10.00;99.90;;;;;;5111165;28;20527;-55
2022/09/29 02:14:21;;;;;;;4.43;3.97;;;10.00;99.90;;;;;;5113734;28;20447;-55
2022/09/29 02:16:53;;;;;;;4.70;3.53;;;10.10;99.90;;;;;;5113734;28;20446;-55
2022/09/29 02:19:25;;;;;;;5.50;3.83;;;9.90;99.90;;;;;;5111965;28;20470;-55
2022/09/29 02:21:54;;;;;;;4.63;3.57;;;9.90;99.90;;;;;;5113406;28;20518;-55
2022/09/29 02:24:22;;;;;;;4.53;3.70;;;9.90;99.90;;;;;;5113907;28;20496;-55
2022/09/29 02:26:50;;;;;;;4.83;3.50;;;9.90;99.90;;;;;;5111463;28;20983;-55
2022/09/29 02:29:18;;;;;;;5.63;4.00;;;10.00;99.90;;;;;;5113022;28;20538;-55
2022/09/29 02:31:45;;;;;;;8.93;4.23;;;10.10;99.90;;;;;;5114361;28;20474;-55
2022/09/29 02:34:16;;;;;;;5.13;3.40;;;10.00;99.90;;;;;;5111483;28;20447;-55
2022/09/29 02:36:54;;;;;;;3.97;3.67;;;10.10;99.90;;;;;;5113736;28;20468;-55
2022/09/29 02:39:33;;;;;;;5.33;3.57;;;10.10;99.90;;;;;;5113063;28;20466;-55
2022/09/29 02:42:11;;;;;;;3.37;3.13;;;10.00;99.90;;;;;;5110667;28;20995;-55
2022/09/29 02:44:52;;;;;;;4.27;3.63;;;10.00;99.90;;;;;;5113120;28;20431;-55
2022/09/29 02:47:42;;;;;;;4.83;3.70;;;10.00;99.90;;;;;;5113872;28;20445;-55
2022/09/29 02:50:31;;;;;;;4.70;3.77;;;10.10;99.90;;;;;;5110619;28;20475;-55
2022/09/29 02:53:10;;;;;;;3.27;3.00;;;10.10;99.90;;;;;;5113276;28;20466;-55
2022/09/29 02:55:44;;;;;;;4.80;3.53;;;10.00;99.90;;;;;;5113147;28;20427;-55
2022/09/29 02:58:18;;;;;;;4.73;3.20;;;10.00;99.90;;;;;;5110812;28;20426;-55
2022/09/29 03:00:46;;;;;;;6.90;3.97;;;10.00;99.90;;;;;;5112616;28;20486;-55
2022/09/29 03:03:14;;;;;;;3.70;3.40;;;10.00;99.90;;;;;;5111143;28;20470;-55
2022/09/29 03:05:41;;;;;;;3.13;2.93;;;10.00;99.90;;;;;;5109523;28;20912;-55
2022/09/29 03:08:09;;;;;;;8.07;3.97;;;10.00;99.90;;;;;;5113242;28;20442;-55
2022/09/29 03:10:36;;;;;;;4.00;3.60;;;10.00;99.90;;;;;;5112658;28;20443;-55
2022/09/29 03:13:03;;;;;;;5.73;4.23;;;10.10;99.90;;;;;;5110582;28;20806;-55
2022/09/29 03:15:30;;;;;;;3.80;3.40;;;10.20;99.90;;;;;;5112955;28;20879;-55
2022/09/29 03:17:57;;;;;;;3.93;3.63;;;10.20;99.90;;;;;;5112531;28;20473;-55
2022/09/29 03:20:25;;;;;;;4.07;3.77;;;10.10;99.90;;;;;;5110563;28;20474;-55
2022/09/29 03:22:56;;;;;;;4.27;3.40;;;10.00;99.90;;;;;;5112763;28;20466;-55
2022/09/29 03:25:25;;;;;;;6.70;3.43;;;10.00;99.90;;;;;;5111847;28;20485;-55
2022/09/29 03:27:52;;;;;;;6.60;3.63;;;10.00;99.90;;;;;;5110314;28;20442;-55
2022/09/29 03:30:21;;;;;;;6.70;3.90;;;10.00;99.90;;;;;;5112802;28;20446;-55
2022/09/29 03:32:48;;;;;;;4.50;3.20;;;10.00;99.90;;;;;;5112235;28;20882;-55
2022/09/29 03:35:16;;;;;;;3.43;3.13;;;9.90;99.90;;;;;;5110193;28;20443;-55
2022/09/29 03:37:43;;;;;;;3.70;3.30;;;9.90;99.90;;;;;;5112143;28;20461;-55
2022/09/29 03:40:11;;;;;;;4.33;3.23;;;9.90;99.90;;;;;;5110947;28;20478;-55
2022/09/29 03:42:39;;;;;;;3.67;3.37;;;9.80;99.90;;;;;;5110189;28;20451;-55
2022/09/29 03:45:07;;;;;;;6.30;3.67;;;9.80;99.90;;;;;;5112196;28;20507;-55
2022/09/29 03:47:34;;;;;;;3.97;3.67;;;9.80;99.90;;;;;;5111744;28;20451;-55
2022/09/29 03:50:01;;;;;;;5.37;3.60;;;9.80;99.90;;;;;;5110206;28;20535;-55
2022/09/29 03:52:29;;;;;;;5.17;4.30;;;9.80;99.90;;;;;;5111953;28;20473;-55
2022/09/29 03:54:56;;;;;;;4.07;3.77;;;9.70;99.90;;;;;;5112524;28;20520;-55
2022/09/29 03:57:23;;;;;;;4.70;4.20;;;9.60;99.90;;;;;;5110067;28;20450;-55
2022/09/29 03:59:52;;;;;;;4.07;3.30;;;9.60;99.90;;;;;;5111541;28;20478;-55
2022/09/29 04:02:19;;;;;;;3.83;3.40;;;9.60;99.90;;;;;;5112101;28;20470;-55
2022/09/29 04:04:46;;;;;;;4.43;3.80;;;9.50;99.90;;;;;;5110198;28;20450;-55
2022/09/29 04:07:18;;;;;;;4.60;4.20;;;9.50;99.90;;;;;;5112211;28;20480;-55
2022/09/29 04:09:45;;;;;;;5.00;4.03;;;9.40;99.90;;;;;;5112035;28;20445;-55
2022/09/29 04:12:12;;;;;;;4.97;3.97;;;9.40;99.90;;;;;;5110044;28;20547;-56
2022/09/29 04:14:39;;;;;;;5.17;3.70;;;9.30;99.90;;;;;;5111302;28;20457;-55
2022/09/29 04:17:08;;;;;;;3.60;3.30;;;9.40;99.90;;;;;;5111757;28;20450;-55
2022/09/29 04:19:35;;;;;;;3.53;3.07;;;9.30;99.90;;;;;;5109846;28;20996;-55
2022/09/29 04:22:02;;;;;;;4.53;4.13;;;9.30;99.90;;;;;;5110831;28;20470;-55
2022/09/29 04:24:29;;;;;;;3.50;3.13;;;9.30;99.90;;;;;;5111763;28;20997;-55
2022/09/29 04:26:57;;;;;;;3.93;3.30;;;9.30;99.90;;;;;;5109573;28;20450;-55
2022/09/29 04:29:24;;;;;;;4.30;3.90;;;9.30;99.90;;;;;;5111687;28;20442;-55
2022/09/29 04:31:51;;;;;;;5.40;3.80;;;9.10;99.90;;;;;;5111603;28;20473;-55
2022/09/29 04:34:20;;;;;;;3.83;3.43;;;9.00;99.90;;;;;;5111518;28;20474;-55
2022/09/29 04:36:47;;;;;;;4.70;3.73;;;9.00;99.90;;;;;;5115390;28;20991;-55
2022/09/29 04:39:14;;;;;;;5.50;3.97;;;9.00;99.90;;;;;;5114830;28;20816;-55
2022/09/29 04:41:41;;;;;;;4.67;3.93;;;9.10;99.90;;;;;;5113576;28;20561;-55
2022/09/29 04:44:08;;;;;;;3.80;3.40;;;9.10;99.90;;;;;;5115518;28;20810;-55
2022/09/29 04:46:36;;;;;;;4.37;3.97;;;9.10;99.90;;;;;;5115458;28;20453;-55
2022/09/29 04:49:03;;;;;;;4.93;3.50;;;9.00;99.90;;;;;;5113583;28;20558;-55
2022/09/29 04:51:31;;;;;;;4.83;4.27;;;9.00;99.90;;;;;;5115342;28;20507;-55
2022/09/29 04:53:59;;;;;;;7.00;3.77;;;9.00;99.90;;;;;;5115468;28;20473;-55
2022/09/29 04:56:30;;;;;;;4.37;3.97;;;9.00;99.90;;;;;;5113405;28;20760;-55
2022/09/29 04:58:57;;;;;;;5.23;3.93;;;8.90;99.90;;;;;;5115164;28;20458;-55
2022/09/29 05:01:25;;;;;;;9.50;5.27;;;8.80;99.90;;;;;;5115298;28;20482;-55
2022/09/29 05:03:52;;;;;;;4.97;4.50;;;8.80;99.90;;;;;;5113335;28;20830;-55
2022/09/29 05:06:19;;;;;;;6.43;4.97;;;8.80;99.90;;;;;;5115218;28;20949;-55
2022/09/29 05:08:48;;;;;;;8.00;5.60;;;8.90;99.90;;;;;;5115398;28;20442;-55
2022/09/29 05:11:15;;;;;;;5.90;5.30;;;9.00;99.90;;;;;;5112553;28;20932;-55
2022/09/29 05:13:42;;;;;;;8.30;5.97;;;8.90;99.90;;;;;;5114697;28;20446;-55
2022/09/29 05:16:10;;;;;;;10.20;5.97;;;9.00;99.90;;;;;;5115107;28;20469;-56
2022/09/29 05:18:37;;;;;;;10.10;5.83;;;9.00;99.90;;;;;;5112411;28;20457;-55
2022/09/29 05:21:05;;;;;;;7.40;6.43;;;9.00;99.90;;;;;;5114517;28;20474;-55
2022/09/29 05:23:32;;;;;;;9.10;5.63;;;9.00;99.90;;;;;;5114331;28;20757;-55
2022/09/29 05:26:03;;;;;;;8.07;6.07;;;9.00;99.90;;;;;;5112391;28;20448;-55
2022/09/29 05:28:30;;;;;;;8.40;7.60;;;9.00;99.90;;;;;;5115294;28;20809;-54
2022/09/29 05:31:02;;;;;;;8.13;5.90;;;9.00;99.90;;;;;;5114172;28;21032;-57
2022/09/29 05:33:29;;;;;;;8.93;5.93;;;9.00;99.90;;;;;;5112310;28;20427;-55
2022/09/29 05:35:56;;;;;;;6.23;5.20;;;8.90;99.90;;;;;;5114362;28;20482;-55
2022/09/29 05:38:24;;;;;;;7.27;5.77;;;8.90;99.90;;;;;;5113276;28;20971;-55
2022/09/29 05:40:51;;;;;;;9.03;4.73;;;8.90;99.90;;;;;;5111710;28;20501;-55
2022/09/29 05:43:20;;;;;;;6.03;5.43;;;8.90;99.90;;;;;;5114369;28;20834;-55
2022/09/29 05:45:47;;;;;;;7.80;5.27;;;9.00;99.90;;;;;;5112745;28;20446;-55
2022/09/29 05:48:14;;;;;;;9.83;6.63;;;9.00;99.90;;;;;;5111914;28;20923;-55
2022/09/29 05:50:42;;;;;;;8.60;6.03;;;9.00;99.90;;;;;;5114128;28;20475;-55
2022/09/29 05:53:10;;;;;;;8.60;5.77;;;9.10;99.90;;;;;;5113949;28;20499;-55
2022/09/29 05:55:38;;;;;;;11.43;6.30;;;9.20;99.90;;;;;;5111806;27;20443;-55
2022/09/29 05:58:05;;;;;;;10.97;6.07;;;9.20;99.90;;;;;;5113804;28;20450;-54
2022/09/29 06:00:34;;;;;;;9.60;5.40;;;9.10;99.90;;;;;;5113325;28;20484;-54
2022/09/29 06:03:02;;;;;;;6.30;5.37;;;9.00;99.90;;;;;;5111760;27;20462;-55
2022/09/29 06:05:29;;;;;;;7.50;6.70;;;9.10;99.90;;;;;;5113971;28;20469;-55
2022/09/29 06:07:57;;;;;;;6.13;5.30;;;9.20;99.90;;;;;;5113838;28;20443;-55
2022/09/29 06:10:24;;;;;;;11.77;5.83;;;9.20;99.90;;;;;;5111548;28;20647;-54
2022/09/29 06:12:55;;;;;;;11.00;5.50;;;9.20;99.90;;;;;;5113029;28;20473;-55
2022/09/29 06:15:23;;;;;;;6.60;5.90;;;9.20;99.90;;;;;;5113515;28;20769;-54
2022/09/29 06:17:57;;;;;;;9.47;6.27;;;9.40;99.90;;;;;;5111313;28;20442;-56
2022/09/29 06:20:24;;;;;;;8.10;5.40;;;9.50;99.90;;;;;;5113563;28;20477;-55
2022/09/29 06:22:54;;;;;;;26.23;5.80;;;9.50;99.90;;;;;;5113136;28;20991;-55
2022/09/29 06:25:21;;;;;;;10.40;5.50;;;9.50;99.90;;;;;;5111822;28;20450;-55
2022/09/29 06:27:48;;;;;;;8.47;6.53;;;9.50;99.90;;;;;;5113065;28;20450;-55
2022/09/29 06:30:15;;;;;;;8.80;5.40;;;9.50;99.90;;;;;;5113736;28;20800;-55
2022/09/29 06:32:43;;;;;;;10.00;6.70;;;9.50;99.90;;;;;;5111101;28;20466;-55
2022/09/29 06:37:56;;;;;;;7.17;6.10;;;9.70;99.90;;;;;;5112234;28;20880;-56
2022/09/29 06:40:26;;;;;;;7.50;4.70;;;9.70;99.90;;;;;;5113034;28;20482;-55
2022/09/29 06:42:53;;;;;;;6.20;5.60;;;9.70;99.90;;;;;;5113969;28;20470;-55
2022/09/29 06:45:20;;;;;;;8.83;4.77;;;9.80;99.90;;;;;;5113789;28;20457;-55
2022/09/29 06:47:47;;;;;;;6.30;5.00;;;9.70;99.90;;;;;;5113508;28;20503;-55
2022/09/29 06:50:16;;;;;;;5.47;4.77;;;9.80;99.90;;;;;;5113561;28;20477;-55
2022/09/29 06:52:44;;;;;;;12.60;6.13;;;9.80;99.90;;;;;;5113479;28;20535;-55
2022/09/29 06:55:11;;;;;;;10.23;6.03;;;10.00;99.90;;;;;;5113019;28;20446;-55
2022/09/29 06:57:39;;;;;;;5.27;4.80;;;10.10;99.90;;;;;;5113516;28;20547;-55
2022/09/29 07:00:07;;;;;;;6.30;5.20;;;10.10;99.90;;;;;;5113748;28;20479;-56
2022/09/29 07:02:34;;;;;;;7.53;5.37;;;9.90;99.90;;;;;;5112144;28;20470;-55
2022/09/29 07:05:02;;;;;;;5.60;5.03;;;10.00;99.90;;;;;;5113611;28;20442;-55
2022/09/29 07:07:30;;;;;;;5.20;4.70;;;10.00;99.90;;;;;;5113492;28;20994;-55
2022/09/29 07:09:58;;;;;;;7.40;5.03;;;10.00;99.90;;;;;;5112214;28;20450;-55
2022/09/29 07:12:25;;;;;;;6.40;5.70;;;10.00;99.90;;;;;;5113049;28;20498;-55
2022/09/29 07:14:52;;;;;;;6.07;5.47;;;10.10;99.90;;;;;;5112350;28;20447;-56
2022/09/29 07:17:19;;;;;;;5.00;4.50;;;10.20;99.90;;;;;;5110500;28;20447;-55
2022/09/29 07:19:46;;;;;;;5.80;4.90;;;10.30;99.90;;;;;;5112313;28;20449;-55
2022/09/29 07:22:13;;;;;;;7.67;4.20;;;10.40;99.90;;;;;;5112165;28;20562;-56
2022/09/29 07:24:42;;;;;;;6.10;5.50;;;10.30;99.90;;;;;;5109907;28;20537;-55
2022/09/29 07:27:09;;;;;;;7.73;5.47;;;10.40;99.90;;;;;;5112073;28;20446;-55
2022/09/29 07:29:37;;;;;;;6.47;4.63;;;10.40;99.90;;;;;;5112358;28;20505;-55
2022/09/29 07:32:04;;;;;;;5.73;5.07;;;10.40;99.90;;;;;;5110050;28;20553;-55
2022/09/29 07:34:31;;;;;;;6.10;5.50;;;10.40;99.90;;;;;;5111680;28;20446;-55
2022/09/29 07:36:58;;;;;;;9.63;5.53;;;10.40;99.90;;;;;;5112523;28;20443;-55
2022/09/29 07:39:25;;;;;;;8.93;4.93;;;10.40;99.90;;;;;;5109475;28;20443;-55
2022/09/29 07:41:55;;;;;;;5.87;5.27;;;10.40;99.90;;;;;;5111995;28;20553;-55
2022/09/29 07:44:22;;;;;;;14.03;5.50;;;10.50;99.90;;;;;;5112111;28;20453;-59
2022/09/29 07:46:49;;;;;;;6.80;6.20;;;10.40;99.90;;;;;;5110224;28;20449;-55
2022/09/29 07:49:16;;;;;;;5.00;4.47;;;10.40;99.90;;;;;;5111581;28;20482;-60
2022/09/29 07:51:44;;;;;;;6.13;4.70;;;10.60;99.90;;;;;;5112156;28;20462;-55
2022/09/29 07:54:11;;;;;;;6.27;5.13;;;10.70;99.90;;;;;;5109519;28;20453;-55
2022/09/29 07:56:38;;;;;;;6.33;5.57;;;10.80;99.90;;;;;;5111429;28;20453;-56
2022/09/29 07:59:06;;;;;;;4.30;3.90;;;10.80;99.90;;;;;;5111588;28;20449;-55
2022/09/29 08:01:34;;;;;;;10.17;4.80;;;10.80;99.90;;;;;;5109058;28;20501;-55
2022/09/29 08:04:02;;;;;;;6.30;5.00;;;10.90;99.90;;;;;;5111480;28;20480;-55
2022/09/29 08:06:29;;;;;;;5.37;4.83;;;11.10;99.90;;;;;;5109888;28;20461;-55
2022/09/29 08:08:57;;;;;;;6.17;4.63;;;11.30;99.90;;;;;;5100600;28;21060;-55
2022/09/29 08:11:24;;;;;;;5.20;4.60;;;11.30;99.90;;;;;;5107803;28;20471;-56
2022/09/29 08:13:53;;;;;;;6.90;5.07;;;11.20;99.90;;;;;;5109930;28;20533;-55
2022/09/29 08:16:22;;;;;;;8.93;5.30;;;11.30;99.90;;;;;;5108934;28;20473;-55
2022/09/29 08:18:49;;;;;;;5.97;5.10;;;11.30;99.90;;;;;;5110428;28;20541;-56
2022/09/29 08:21:16;;;;;;;7.00;4.87;;;11.30;99.90;;;;;;5105766;28;20490;-56
2022/09/29 08:23:44;;;;;;;7.10;5.00;;;11.50;99.90;;;;;;5108278;28;20450;-56
2022/09/29 08:26:14;;;;;;;5.50;5.00;;;11.30;99.90;;;;;;5110639;28;20549;-55
2022/09/29 08:28:42;;;;;;;10.23;5.50;;;11.40;99.90;;;;;;5110606;28;20458;-56
2022/09/29 08:31:11;;;;;;;9.93;6.03;;;11.40;99.90;;;;;;5108881;28;20785;-56
2022/09/29 08:33:39;;;;;;;6.30;5.60;;;11.60;99.90;;;;;;5110173;28;20450;-56
2022/09/29 08:36:13;;;;;;;6.10;5.27;;;11.80;99.90;;;;;;5111163;28;20457;-56
2022/09/29 08:38:43;;;;;;;13.23;6.10;;;11.90;99.90;;;;;;5107821;28;20518;-56
2022/09/29 08:41:26;;;;;;;8.50;4.87;;;12.10;99.90;;;;;;5110524;28;20466;-56
2022/09/29 08:43:58;;;;;;;8.63;5.80;;;12.40;99.90;;;;;;5108726;28;20697;-56
2022/09/29 08:46:30;;;;;;;4.50;4.10;;;12.40;99.90;;;;;;5111494;28;20431;-56
2022/09/29 08:49:03;;;;;;;6.83;5.53;;;12.50;99.90;;;;;;5110651;28;20799;-56
2022/09/29 08:51:34;;;;;;;5.37;4.83;;;12.50;99.90;;;;;;5109146;28;20463;-56
2022/09/29 08:54:08;;;;;;;5.40;4.90;;;12.30;99.90;;;;;;5110758;28;20912;-56
2022/09/29 08:56:35;;;;;;;8.20;6.17;;;12.30;99.90;;;;;;5111274;28;20452;-56
2022/09/29 08:59:02;;;;;;;6.50;5.90;;;12.40;99.90;;;;;;5109662;28;20798;-56
2022/09/29 09:01:35;;;;;;;5.97;5.30;;;12.60;99.90;;;;;;5110676;28;21049;-56
2022/09/29 09:04:47;;;;;;;6.27;5.63;;;12.50;99.90;;;;;;5110738;28;20431;-55
2022/09/29 09:07:23;;;;;;;5.60;5.10;;;12.80;99.90;;;;;;5025839;28;20991;-56
2022/09/29 09:09:58;;;;;;;6.00;4.50;;;13.40;99.90;;;;;;5026915;28;20444;-56
2022/09/29 09:12:54;;;;;;;5.67;5.07;;;13.40;99.90;;;;;;5062796;28;20973;-56
2022/09/29 09:15:35;;;;;;;6.33;4.67;;;13.20;99.90;;;;;;5080618;28;20458;-56
2022/09/29 09:18:49;;;;;;;5.10;4.60;;;13.30;99.90;;;;;;5090367;28;20434;-56
2022/09/29 09:21:21;;;;;;;5.07;4.43;;;13.20;99.90;;;;;;5044091;28;20913;-56
2022/09/29 09:23:54;;;;;;;6.73;4.70;;;13.10;99.90;;;;;;5094970;28;20427;-58
2022/09/29 09:26:31;;;;;;;5.70;3.97;;;13.20;99.90;;;;;;5095175;28;20431;-56
2022/09/29 09:29:02;;;;;;;5.63;5.10;;;13.10;99.90;;;;;;5105964;28;20995;-55
2022/09/29 09:31:33;;;;;;;6.03;4.67;;;13.10;99.90;;;;;;5115128;28;20474;-56
2022/09/29 09:34:06;;;;;;;6.10;5.30;;;13.10;99.90;;;;;;5115031;28;20448;-56
2022/09/29 09:36:39;;;;;;;6.00;4.63;;;13.10;99.90;;;;;;5113190;28;20449;-56
2022/09/29 09:39:14;;;;;;;6.50;5.10;;;13.20;99.90;;;;;;5113904;28;20446;-58
2022/09/29 09:41:43;;;;;;;7.73;4.70;;;13.40;99.90;;;;;;5113781;28;20496;-56
2022/09/29 09:44:15;;;;;;;5.63;4.93;;;13.40;99.90;;;;;;5113022;28;20529;-56
2022/09/29 09:46:48;;;;;;;5.67;5.03;;;13.70;99.90;;;;;;5115169;28;20443;-56
2022/09/29 09:49:21;;;;;;;6.13;4.77;;;13.60;99.90;;;;;;5114655;28;20478;-56
2022/09/29 09:51:57;;;;;;;5.87;4.20;;;13.60;99.90;;;;;;5112197;28;20469;-56
2022/09/29 09:54:30;;;;;;;4.40;4.00;;;13.60;99.90;;;;;;5114504;28;20958;-56
2022/09/29 09:57:18;;;;;;;4.37;3.97;;;13.70;99.90;;;;;;5114439;28;20430;-56
2022/09/29 10:00:04;;;;;;;4.10;3.70;;;13.90;99.90;;;;;;5112732;28;20454;-56
2022/09/29 10:02:32;;;;;;;6.47;3.70;;;14.00;99.90;;;;;;5114296;28;20492;-56
2022/09/29 10:04:59;;;;;;;9.00;3.70;;;13.90;99.90;;;;;;5114301;28;20489;-56
2022/09/29 10:07:30;;;;;;;3.70;3.17;;;13.90;99.90;;;;;;5112817;28;20450;-56
2022/09/29 10:10:02;;;;;;;3.27;3.07;;;14.20;99.90;;;;;;5114508;28;20466;-56
2022/09/29 10:12:30;;;;;;;3.90;3.50;;;14.30;99.90;;;;;;5114491;28;20455;-56
2022/09/29 10:15:04;;;;;;;3.70;3.00;;;14.40;99.90;;;;;;5111903;28;20949;-58
2022/09/29 10:17:37;;;;;;;3.27;2.97;;;14.20;99.90;;;;;;5113402;28;20431;-55
2022/09/29 10:20:06;;;;;;;3.70;2.70;;;14.10;99.90;;;;;;5112024;28;20430;-54
2022/09/29 10:22:35;;;;;;;3.60;2.73;;;13.90;99.90;;;;;;5113673;28;20489;-56
2022/09/29 10:25:17;;;;;;;4.87;3.37;;;13.70;99.90;;;;;;5113378;28;20446;-56
2022/09/29 10:27:48;;;;;;;5.53;3.20;;;13.70;99.90;;;;;;5111988;28;20500;-56
2022/09/29 10:30:21;;;;;;;2.77;2.53;;;14.00;99.90;;;;;;5114097;28;20450;-55
2022/09/29 10:32:48;;;;;;;3.90;3.30;;;14.50;99.90;;;;;;5112385;28;20459;-55
2022/09/29 10:35:20;;;;;;;3.27;3.00;;;14.80;99.90;;;;;;5111591;28;20536;-56
2022/09/29 10:37:58;;;;;;;2.90;2.60;;;15.10;99.90;;;;;;5113177;28;20468;-56
2022/09/29 10:40:26;;;;;;;3.27;2.63;;;15.20;99.90;;;;;;5112760;28;20956;-56
2022/09/29 10:42:53;;;;;;;4.07;3.33;;;15.30;99.90;;;;;;5111024;28;20845;-56
2022/09/29 10:45:22;;;;;;;4.03;2.73;;;15.00;99.90;;;;;;5112827;28;20845;-56
2022/09/29 10:48:08;;;;;;;5.10;3.30;;;14.80;99.90;;;;;;5112433;28;20482;-56
2022/09/29 10:50:38;;;;;;;3.87;3.20;;;14.50;99.90;;;;;;5109338;28;20474;-55
2022/09/29 10:53:21;;;;;;;5.90;2.97;;;14.50;99.90;;;;;;5112630;28;20499;-56
2022/09/29 10:55:51;;;;;;;4.40;3.30;;;14.70;99.90;;;;;;5112688;28;20427;-55
2022/09/29 10:58:24;;;;;;;3.37;3.07;;;14.70;99.90;;;;;;5110869;28;20443;-55
2022/09/29 11:01:06;;;;;;;4.53;4.07;;;14.80;99.90;;;;;;5112664;28;20545;-55
2022/09/29 11:03:35;;;;;;;3.83;3.47;;;14.80;99.90;;;;;;5112844;28;20779;-55
2022/09/29 11:06:06;;;;;;;4.30;3.50;;;14.90;99.90;;;;;;5110461;28;20451;-55
2022/09/29 11:08:56;;;;;;;5.53;3.50;;;15.20;99.90;;;;;;5111797;28;20510;-54
2022/09/29 11:11:26;;;;;;;3.80;3.27;;;16.10;99.90;;;;;;5111991;28;20860;-54
2022/09/29 11:13:54;;;;;;;6.07;3.70;;;16.30;99.90;;;;;;5110136;28;20951;-54
2022/09/29 11:16:29;;;;;;;3.77;3.47;;;16.10;99.90;;;;;;5112778;28;20537;-57
2022/09/29 11:19:01;;;;;;;4.70;3.40;;;16.40;99.90;;;;;;5112962;28;20438;-56
2022/09/29 11:22:14;;;;;;;3.80;3.40;;;16.30;99.90;;;;;;5110365;28;20973;-55
2022/09/29 11:25:07;;;;;;;5.43;3.17;;;16.30;99.90;;;;;;5109782;28;20442;-56
2022/09/29 11:27:46;;;;;;;3.73;3.10;;;16.40;99.90;;;;;;5110684;28;20542;-56
2022/09/29 11:30:19;;;;;;;6.93;3.37;;;17.00;99.90;;;;;;5113214;28;20548;-57
2022/09/29 11:33:10;;;;;;;3.40;3.10;;;16.80;99.90;;;;;;5111939;28;20462;-56
2022/09/29 11:35:45;;;;;;;4.30;2.63;;;16.40;99.90;;;;;;5112575;27;20453;-56
2022/09/29 11:38:31;;;;;;;9.97;3.43;;;16.30;99.90;;;;;;5111715;28;20427;-56
2022/09/29 11:41:14;;;;;;;3.33;2.47;;;16.10;99.90;;;;;;5110135;28;20522;-56
2022/09/29 11:43:46;;;;;;;3.23;2.93;;;16.30;99.90;;;;;;5111032;27;20561;-56
2022/09/29 11:46:48;;;;;;;5.20;3.27;;;16.20;99.90;;;;;;5111519;28;20539;-56
2022/09/29 11:49:33;;;;;;;3.87;3.00;;;16.30;99.90;;;;;;5095938;28;20551;-54
2022/09/29 11:52:33;;;;;;;2.60;2.40;;;16.50;99.90;;;;;;5112100;28;20469;-54
2022/09/29 11:55:19;;;;;;;3.90;3.57;;;16.50;99.90;;;;;;5099632;28;20486;-56
2022/09/29 11:57:59;;;;;;;2.87;2.57;;;16.30;99.90;;;;;;5112183;28;20423;-55
2022/09/29 12:00:38;;;;;;;4.00;2.97;;;16.30;99.90;;;;;;5112414;28;20493;-55
2022/09/29 12:03:21;;;;;;;4.33;3.03;;;16.00;99.90;;;;;;5110505;28;20570;-55
2022/09/29 12:06:05;;;;;;;4.27;2.47;;;15.70;99.90;;;;;;5111982;28;20906;-55
2022/09/29 12:08:50;;;;;;;4.03;2.60;;;15.40;99.90;;;;;;5111708;28;20453;-55
2022/09/29 12:11:23;;;;;;;4.67;2.63;;;15.20;99.90;;;;;;5110828;28;20508;-55
2022/09/29 12:13:56;;;;;;;3.37;2.10;;;15.50;99.90;;;;;;5112558;28;20427;-54
2022/09/29 12:16:26;;;;;;;3.90;2.60;;;15.10;99.90;;;;;;5112377;28;20645;-55
2022/09/29 12:18:58;;;;;;;3.00;2.80;;;15.00;99.90;;;;;;5110471;28;20522;-56
2022/09/29 12:21:31;;;;;;;7.30;2.47;;;14.90;99.90;;;;;;5112437;28;20470;-56
2022/09/29 12:24:02;;;;;;;5.67;3.10;;;14.70;99.90;;;;;;5112482;28;20810;-55
2022/09/29 12:26:31;;;;;;;2.60;2.40;;;14.50;99.90;;;;;;5110796;28;20427;-56
2022/09/29 12:29:04;;;;;;;3.77;2.90;;;14.60;99.90;;;;;;5112464;28;20529;-56
2022/09/29 12:31:35;;;;;;;4.70;2.47;;;15.00;99.90;;;;;;5112880;28;20565;-56
2022/09/29 12:34:10;;;;;;;3.00;2.60;;;15.10;99.90;;;;;;5110706;28;20430;-56
2022/09/29 12:36:44;;;;;;;3.57;2.53;;;15.20;99.90;;;;;;5112075;28;20516;-55
2022/09/29 12:39:26;;;;;;;2.37;2.13;;;15.30;99.90;;;;;;5112380;28;20426;-56
2022/09/29 12:41:59;;;;;;;3.17;2.07;;;15.30;99.90;;;;;;5112172;28;20496;-55
2022/09/29 12:44:33;;;;;;;3.53;2.40;;;15.40;99.90;;;;;;5112216;28;21069;-56
2022/09/29 12:47:05;;;;;;;3.60;2.20;;;15.30;99.90;;;;;;5110719;28;20433;-56
2022/09/29 12:49:39;;;;;;;5.13;2.87;;;15.40;99.90;;;;;;5112022;28;20511;-56
2022/09/29 12:52:15;;;;;;;3.33;2.03;;;15.30;99.90;;;;;;5112359;28;20460;-55
2022/09/29 12:54:48;;;;;;;2.80;2.43;;;15.20;99.90;;;;;;5110696;28;20786;-56
2022/09/29 12:57:18;;;;;;;5.03;3.00;;;14.90;99.90;;;;;;5116326;28;20434;-56
2022/09/29 12:59:54;;;;;;;15.67;14.37;;;14.80;99.90;;;;;;5116117;28;20457;-56
2022/09/29 13:02:42;;;;;;;6.23;3.07;;;14.80;99.90;;;;;;5114085;28;20482;-55
2022/09/29 13:05:32;;;;;;;2.27;1.73;;;14.90;99.90;;;;;;5115832;28;20430;-55
2022/09/29 13:08:16;;;;;;;3.90;2.07;;;15.00;99.90;;;;;;5115593;28;20426;-56
2022/09/29 13:11:02;;;;;;;5.53;2.43;;;15.00;99.90;;;;;;5113908;28;20890;-55
2022/09/29 13:14:03;;;;;;;2.83;2.23;;;14.90;99.90;;;;;;5115995;28;20426;-56
2022/09/29 13:16:47;;;;;;;2.40;2.10;;;14.90;99.90;;;;;;5114904;28;20449;-56
2022/09/29 13:19:47;;;;;;;5.30;3.10;;;14.80;99.90;;;;;;5114972;28;20427;-56